Time;durP1;ratioP1;P1;durP2;ratioP2;P2;SDS_P1;SDS_P2;PMS_P1;PMS_P2;Temp;Humidity;BMP_temperature;BMP_pressure;BME280_temperature;BME280_humidity;BME280_pressure;Samples;Min_cycle;Max_cycle;Signal;HPM_P1;HPM_P2
2023/01/17 00:00:46;;;;;;;2.93;1.60;;;;;;;;;;5041668;28;20315;-55
2023/01/17 00:03:13;;;;;;;1.77;1.20;;;;;;;;;;5050698;28;20227;-55
2023/01/17 00:11:09;;;;;;;1.70;1.50;;;;;;;;;;5040847;28;20239;-57
2023/01/17 00:13:35;;;;;;;1.63;1.37;;;;;;;;;;5032551;28;20621;-55
2023/01/17 00:16:02;;;;;;;1.97;1.87;;;;;;;;;;5034507;28;20311;-55
2023/01/17 00:18:28;;;;;;;1.87;1.53;;;;;;;;;;5030092;28;20315;-57
2023/01/17 00:26:23;;;;;;;1.63;1.53;;;;;;;;;;5045398;28;20262;-57
2023/01/17 01:35:37;;;;;;;3.13;1.73;;;;;;;;;;5058586;28;20739;-55
2023/01/17 01:38:04;;;;;;;2.13;1.63;;;;;;;;;;5055842;28;20224;-55
2023/01/17 01:40:30;;;;;;;3.90;1.83;;;;;;;;;;5043728;28;20236;-55
2023/01/17 01:42:58;;;;;;;2.87;1.50;;;;;;;;;;5041981;28;20228;-55
2023/01/17 01:45:25;;;;;;;2.27;1.60;;;;;;;;;;5042414;28;20726;-55
2023/01/17 01:47:53;;;;;;;1.50;1.40;;;;;;;;;;5047949;28;20267;-60
2023/01/17 01:50:21;;;;;;;2.37;1.80;;;;;;;;;;5045709;28;20233;-56
2023/01/17 01:52:51;;;;;;;2.23;1.90;;;;;;;;;;5047679;28;20746;-56
2023/01/17 01:55:19;;;;;;;3.33;1.77;;;;;;;;;;5047907;28;20316;-56
2023/01/17 01:57:48;;;;;;;3.00;2.17;;;;;;;;;;5039439;28;20457;-55
2023/01/17 02:00:17;;;;;;;1.90;1.50;;;;;;;;;;5050000;28;20256;-55
2023/01/17 02:02:45;;;;;;;3.33;2.37;;;;;;;;;;5031634;28;20252;-55
2023/01/17 02:05:13;;;;;;;2.57;1.87;;;;;;;;;;5053078;28;20246;-56
2023/01/17 02:07:43;;;;;;;2.00;1.70;;;;;;;;;;5034930;28;20240;-55
2023/01/17 02:10:10;;;;;;;1.67;1.57;;;;;;;;;;5039873;28;20264;-55
2023/01/17 02:12:37;;;;;;;2.20;2.00;;;;;;;;;;5033619;28;20668;-55
2023/01/17 02:15:05;;;;;;;1.83;1.50;;;;;;;;;;5036754;28;20234;-55
2023/01/17 02:17:37;;;;;;;2.37;2.00;;;;;;;;;;5043505;28;20251;-55
2023/01/17 02:20:24;;;;;;;3.60;1.50;;;;;;;;;;5055624;28;20231;-56
2023/01/17 02:23:07;;;;;;;1.60;1.50;;;;;;;;;;5040234;28;20235;-56
2023/01/17 02:25:49;;;;;;;3.23;2.07;;;;;;;;;;5048537;28;20258;-57
2023/01/17 02:28:26;;;;;;;1.60;1.50;;;;;;;;;;5053733;28;20324;-55
2023/01/17 02:30:56;;;;;;;2.13;1.67;;;;;;;;;;5046134;28;20230;-55
2023/01/17 02:33:27;;;;;;;2.40;2.13;;;;;;;;;;5030699;28;20302;-55
2023/01/17 02:35:58;;;;;;;2.30;2.00;;;;;;;;;;5044948;28;20238;-54
2023/01/17 02:38:30;;;;;;;2.20;2.00;;;;;;;;;;5034969;28;20231;-55
2023/01/17 02:41:00;;;;;;;1.87;1.70;;;;;;;;;;5026173;28;20224;-55
2023/01/17 02:43:27;;;;;;;3.00;2.40;;;;;;;;;;5038764;28;20239;-55
2023/01/17 02:45:55;;;;;;;2.40;2.20;;;;;;;;;;5038826;28;20258;-56
2023/01/17 02:48:23;;;;;;;3.13;1.90;;;;;;;;;;5041933;28;20232;-55
2023/01/17 02:50:57;;;;;;;3.90;2.00;;;;;;;;;;5058438;28;20231;-56
2023/01/17 02:53:30;;;;;;;2.40;1.87;;;;;;;;;;5028259;28;20279;-57
2023/01/17 02:55:58;;;;;;;2.20;1.80;;;;;;;;;;5042569;28;20231;-54
2023/01/17 02:58:32;;;;;;;2.80;2.03;;;;;;;;;;5052124;28;20495;-56
2023/01/17 03:01:04;;;;;;;2.70;1.30;;;;;;;;;;5051290;28;20235;-55
2023/01/17 03:03:33;;;;;;;2.23;1.83;;;;;;;;;;5040424;28;20239;-58
2023/01/17 03:06:02;;;;;;;2.00;1.80;;;;;;;;;;5028951;28;20330;-55
2023/01/17 03:08:29;;;;;;;2.77;1.93;;;;;;;;;;5031075;28;20235;-55
2023/01/17 03:10:56;;;;;;;2.33;2.10;;;;;;;;;;5037042;28;20232;-56
2023/01/17 03:13:23;;;;;;;2.13;1.63;;;;;;;;;;5033510;28;20844;-55
2023/01/17 03:15:50;;;;;;;2.00;1.80;;;;;;;;;;5045884;28;20297;-55
2023/01/17 03:18:18;;;;;;;2.30;1.90;;;;;;;;;;5068390;28;20226;-55
2023/01/17 03:20:44;;;;;;;1.40;1.10;;;;;;;;;;5059177;28;20230;-55
2023/01/17 03:23:11;;;;;;;2.33;1.70;;;;;;;;;;5044256;28;20277;-55
2023/01/17 03:25:38;;;;;;;1.30;1.20;;;;;;;;;;5068318;28;20235;-56
2023/01/17 03:28:04;;;;;;;1.80;1.30;;;;;;;;;;5065009;28;20314;-54
2023/01/17 03:30:31;;;;;;;1.60;1.30;;;;;;;;;;5070834;28;20486;-56
2023/01/17 03:32:57;;;;;;;2.03;1.60;;;;;;;;;;5063440;28;20242;-56
2023/01/17 03:35:27;;;;;;;2.20;1.20;;;;;;;;;;5050483;28;20226;-55
2023/01/17 03:37:53;;;;;;;1.37;1.20;;;;;;;;;;5039254;28;20230;-55
2023/01/17 03:40:20;;;;;;;1.13;1.03;;;;;;;;;;5044232;28;20240;-56
2023/01/17 03:42:46;;;;;;;1.57;1.43;;;;;;;;;;5050209;28;20309;-55
2023/01/17 03:45:13;;;;;;;2.20;1.20;;;;;;;;;;5039411;28;20259;-55
2023/01/17 03:47:40;;;;;;;2.30;1.30;;;;;;;;;;5034457;28;20238;-55
2023/01/17 03:50:06;;;;;;;1.70;1.43;;;;;;;;;;5039453;28;20792;-55
2023/01/17 03:52:34;;;;;;;2.37;1.27;;;;;;;;;;5031997;28;20657;-55
2023/01/17 03:55:01;;;;;;;1.90;1.70;;;;;;;;;;5038185;28;20748;-55
2023/01/17 03:57:28;;;;;;;3.13;1.73;;;;;;;;;;5045918;28;20236;-55
2023/01/17 03:59:54;;;;;;;2.77;2.10;;;;;;;;;;5042686;28;20232;-55
2023/01/17 04:02:21;;;;;;;3.17;1.60;;;;;;;;;;5047994;28;20241;-54
2023/01/17 04:04:47;;;;;;;2.50;1.70;;;;;;;;;;5040526;28;20247;-55
2023/01/17 04:07:14;;;;;;;1.53;1.10;;;;;;;;;;5040639;28;20246;-55
2023/01/17 04:09:42;;;;;;;2.17;1.10;;;;;;;;;;5035113;28;20331;-55
2023/01/17 04:12:09;;;;;;;2.33;1.27;;;;;;;;;;5042608;28;20242;-56
2023/01/17 04:14:35;;;;;;;2.67;1.40;;;;;;;;;;5063179;28;20236;-58
2023/01/17 04:17:02;;;;;;;1.50;1.03;;;;;;;;;;5027539;28;20243;-55
2023/01/17 04:19:29;;;;;;;1.00;1.00;;;;;;;;;;5060875;28;20322;-55
2023/01/17 04:21:56;;;;;;;1.47;1.10;;;;;;;;;;5061329;28;20231;-55
2023/01/17 04:24:22;;;;;;;0.80;0.80;;;;;;;;;;5053633;28;20244;-56
2023/01/17 04:26:50;;;;;;;3.37;1.10;;;;;;;;;;5033472;28;20232;-61
2023/01/17 04:29:17;;;;;;;2.10;0.90;;;;;;;;;;5029963;28;20281;-56
2023/01/17 04:31:43;;;;;;;1.40;0.93;;;;;;;;;;5049195;28;20224;-55
2023/01/17 04:34:10;;;;;;;0.90;0.90;;;;;;;;;;5045452;28;20241;-55
2023/01/17 04:36:37;;;;;;;0.90;0.90;;;;;;;;;;5048589;28;20233;-55
2023/01/17 04:39:03;;;;;;;0.73;0.73;;;;;;;;;;5037262;28;20318;-55
2023/01/17 04:41:30;;;;;;;0.90;0.90;;;;;;;;;;5032686;28;20296;-56
2023/01/17 04:43:57;;;;;;;0.80;0.80;;;;;;;;;;5035238;28;20244;-54
2023/01/17 04:46:24;;;;;;;0.80;0.80;;;;;;;;;;5044867;28;20649;-56
2023/01/17 04:48:53;;;;;;;0.77;0.77;;;;;;;;;;5048648;28;20760;-55
2023/01/17 04:51:20;;;;;;;1.30;1.20;;;;;;;;;;5026108;28;20259;-57
2023/01/17 04:53:47;;;;;;;0.73;0.63;;;;;;;;;;5044065;28;20893;-58
2023/01/17 04:56:13;;;;;;;0.80;0.80;;;;;;;;;;5034068;28;20323;-55
2023/01/17 04:58:46;;;;;;;0.80;0.80;;;;;;;;;;5045017;28;20602;-55
2023/01/17 05:01:14;;;;;;;0.70;0.70;;;;;;;;;;5034695;28;20253;-55
2023/01/17 05:03:40;;;;;;;1.00;0.90;;;;;;;;;;5036875;28;20239;-59
2023/01/17 05:06:07;;;;;;;0.80;0.80;;;;;;;;;;5047793;28;20227;-55
2023/01/17 05:08:33;;;;;;;1.00;0.93;;;;;;;;;;5071853;28;20233;-55
2023/01/17 05:11:00;;;;;;;1.00;0.80;;;;;;;;;;5069216;28;20240;-54
2023/01/17 05:13:26;;;;;;;0.77;0.77;;;;;;;;;;5041026;28;20246;-55
2023/01/17 05:15:53;;;;;;;0.60;0.60;;;;;;;;;;5065449;28;20708;-54
2023/01/17 05:18:21;;;;;;;1.07;0.73;;;;;;;;;;5076517;28;20233;-56
2023/01/17 05:20:48;;;;;;;0.67;0.67;;;;;;;;;;5075630;28;20239;-54
2023/01/17 05:23:14;;;;;;;0.93;0.80;;;;;;;;;;5070663;28;20325;-55
2023/01/17 05:25:43;;;;;;;0.60;0.60;;;;;;;;;;5073724;28;20241;-56
2023/01/17 05:28:10;;;;;;;0.73;0.73;;;;;;;;;;5052631;28;20301;-55
2023/01/17 05:30:37;;;;;;;2.20;1.10;;;;;;;;;;5038457;28;20239;-55
2023/01/17 05:33:04;;;;;;;0.70;0.70;;;;;;;;;;5048424;28;20245;-55
2023/01/17 05:35:32;;;;;;;1.30;1.20;;;;;;;;;;5063107;28;20322;-55
2023/01/17 05:37:59;;;;;;;0.83;0.83;;;;;;;;;;5042485;28;20242;-56
2023/01/17 05:40:26;;;;;;;0.80;0.80;;;;;;;;;;5051873;28;20241;-54
2023/01/17 05:42:54;;;;;;;1.17;1.00;;;;;;;;;;5047239;28;20959;-55
2023/01/17 05:45:21;;;;;;;1.03;1.00;;;;;;;;;;5041216;28;20246;-56
2023/01/17 05:47:49;;;;;;;0.80;0.80;;;;;;;;;;5036869;28;20237;-56
2023/01/17 05:50:17;;;;;;;0.80;0.80;;;;;;;;;;5043198;28;20251;-57
2023/01/17 05:52:50;;;;;;;0.90;0.90;;;;;;;;;;5045440;28;20239;-56
2023/01/17 05:55:16;;;;;;;1.17;1.07;;;;;;;;;;5057765;28;20236;-59
2023/01/17 05:57:43;;;;;;;1.03;0.90;;;;;;;;;;5037387;28;20242;-56
2023/01/17 06:00:10;;;;;;;1.27;1.17;;;;;;;;;;5035813;28;20238;-55
2023/01/17 06:02:37;;;;;;;1.47;1.10;;;;;;;;;;5051766;28;20319;-55
2023/01/17 06:05:04;;;;;;;0.93;0.93;;;;;;;;;;5062932;28;20334;-55
2023/01/17 06:07:31;;;;;;;2.33;1.10;;;;;;;;;;5063379;28;20227;-56
2023/01/17 06:09:59;;;;;;;1.43;1.33;;;;;;;;;;5034542;28;20231;-55
2023/01/17 06:12:26;;;;;;;1.13;1.10;;;;;;;;;;5033803;28;20430;-55
2023/01/17 06:14:53;;;;;;;1.00;0.90;;;;;;;;;;5066361;28;20247;-55
2023/01/17 06:17:20;;;;;;;1.20;1.10;;;;;;;;;;5056182;28;20702;-58
2023/01/17 06:19:47;;;;;;;1.10;1.10;;;;;;;;;;5049529;28;20258;-55
2023/01/17 06:22:13;;;;;;;1.30;1.20;;;;;;;;;;5067371;28;20244;-55
2023/01/17 06:24:40;;;;;;;1.20;1.10;;;;;;;;;;5038391;28;20785;-56
2023/01/17 06:27:10;;;;;;;2.40;2.03;;;;;;;;;;5035136;28;20344;-56
2023/01/17 06:29:36;;;;;;;2.07;1.60;;;;;;;;;;5039779;28;20650;-55
2023/01/17 06:32:03;;;;;;;0.93;0.93;;;;;;;;;;5056224;28;20235;-55
2023/01/17 06:34:30;;;;;;;1.40;1.30;;;;;;;;;;5055914;28;20752;-55
2023/01/17 06:36:57;;;;;;;1.43;1.33;;;;;;;;;;5060398;28;20424;-55
2023/01/17 06:39:23;;;;;;;1.10;1.10;;;;;;;;;;5039879;28;20236;-55
2023/01/17 06:41:50;;;;;;;1.03;1.03;;;;;;;;;;5041422;28;20711;-57
2023/01/17 06:44:18;;;;;;;1.10;1.00;;;;;;;;;;5037109;28;20698;-56
2023/01/17 06:46:46;;;;;;;1.37;1.30;;;;;;;;;;5040961;28;20239;-55
2023/01/17 06:49:13;;;;;;;1.70;1.23;;;;;;;;;;5035082;28;20243;-55
2023/01/17 06:51:39;;;;;;;1.40;1.30;;;;;;;;;;5038914;28;20236;-55
2023/01/17 06:54:06;;;;;;;1.50;1.40;;;;;;;;;;5035786;28;20889;-56
2023/01/17 06:56:33;;;;;;;1.27;1.17;;;;;;;;;;5044849;28;21183;-57
2023/01/17 06:59:00;;;;;;;1.23;1.23;;;;;;;;;;5059616;28;20239;-55
2023/01/17 07:01:28;;;;;;;1.37;1.27;;;;;;;;;;5063968;28;20277;-54
2023/01/17 07:03:55;;;;;;;2.93;1.27;;;;;;;;;;5083040;28;20247;-56
2023/01/17 07:06:22;;;;;;;1.40;1.30;;;;;;;;;;5070498;28;20230;-60
2023/01/17 07:08:49;;;;;;;1.53;1.43;;;;;;;;;;5047820;28;20230;-55
2023/01/17 07:11:15;;;;;;;1.30;1.20;;;;;;;;;;5051485;28;20289;-58
2023/01/17 07:13:42;;;;;;;2.00;1.80;;;;;;;;;;5079357;28;20321;-55
2023/01/17 07:16:08;;;;;;;1.53;1.43;;;;;;;;;;5065399;28;20244;-55
2023/01/17 07:18:36;;;;;;;1.37;1.27;;;;;;;;;;5075905;28;20254;-56
2023/01/17 07:21:03;;;;;;;1.70;1.60;;;;;;;;;;5053853;28;21879;-56
2023/01/17 07:23:30;;;;;;;1.43;1.33;;;;;;;;;;5063143;28;20238;-56
2023/01/17 07:25:57;;;;;;;2.23;1.70;;;;;;;;;;5063625;28;20254;-55
2023/01/17 07:28:24;;;;;;;1.30;1.20;;;;;;;;;;5041464;28;20290;-55
2023/01/17 07:30:50;;;;;;;4.67;1.57;;;;;;;;;;5051549;28;20779;-55
2023/01/17 07:33:17;;;;;;;1.60;1.50;;;;;;;;;;5047817;28;20325;-59
2023/01/17 07:35:46;;;;;;;1.63;1.53;;;;;;;;;;5045920;28;20298;-56
2023/01/17 07:38:14;;;;;;;1.47;1.37;;;;;;;;;;5045698;28;20254;-56
2023/01/17 07:40:41;;;;;;;1.10;1.00;;;;;;;;;;5048067;28;20333;-59
2023/01/17 07:43:12;;;;;;;1.70;1.60;;;;;;;;;;5055538;28;20237;-55
2023/01/17 07:45:40;;;;;;;1.50;1.40;;;;;;;;;;5043500;28;20228;-55
2023/01/17 07:48:07;;;;;;;1.30;1.20;;;;;;;;;;5040414;28;20377;-56
2023/01/17 07:50:34;;;;;;;1.43;1.33;;;;;;;;;;5041543;28;20234;-55
2023/01/17 07:53:02;;;;;;;1.70;1.60;;;;;;;;;;5033712;28;20239;-56
2023/01/17 07:55:28;;;;;;;1.57;1.47;;;;;;;;;;5038989;28;20230;-56
2023/01/17 07:57:55;;;;;;;1.90;1.80;;;;;;;;;;5066197;28;20240;-55
2023/01/17 08:00:24;;;;;;;1.70;1.60;;;;;;;;;;5064023;28;20740;-57
2023/01/17 08:02:55;;;;;;;1.60;1.50;;;;;;;;;;5050116;28;20239;-57
2023/01/17 08:05:21;;;;;;;1.43;1.33;;;;;;;;;;5073948;28;20313;-55
2023/01/17 08:07:48;;;;;;;1.40;1.30;;;;;;;;;;5056258;28;20272;-55
2023/01/17 08:10:16;;;;;;;1.70;1.60;;;;;;;;;;5065486;28;20236;-54
2023/01/17 08:12:43;;;;;;;2.13;1.50;;;;;;;;;;5071550;28;20242;-57
2023/01/17 08:15:11;;;;;;;1.73;1.63;;;;;;;;;;5053026;28;20238;-58
2023/01/17 08:17:37;;;;;;;3.70;2.10;;;;;;;;;;5047262;28;20293;-57
2023/01/17 08:20:04;;;;;;;2.87;1.20;;;;;;;;;;5048117;28;20300;-64
2023/01/17 08:22:31;;;;;;;1.50;1.40;;;;;;;;;;5039702;28;20256;-55
2023/01/17 08:24:58;;;;;;;1.73;1.47;;;;;;;;;;5045028;28;20262;-57
2023/01/17 08:27:26;;;;;;;1.70;1.60;;;;;;;;;;5039265;28;20247;-55
2023/01/17 08:29:52;;;;;;;1.50;1.40;;;;;;;;;;5041519;28;20277;-56
2023/01/17 08:32:20;;;;;;;2.50;1.30;;;;;;;;;;5042340;28;20240;-55
2023/01/17 08:34:46;;;;;;;2.13;1.50;;;;;;;;;;5057750;28;20227;-56
2023/01/17 08:37:13;;;;;;;1.40;1.30;;;;;;;;;;5036862;28;20326;-56
2023/01/17 08:39:39;;;;;;;1.50;1.40;;;;;;;;;;5032884;28;20267;-56
2023/01/17 08:42:06;;;;;;;1.40;1.30;;;;;;;;;;5037037;28;20737;-55
2023/01/17 08:44:34;;;;;;;2.67;1.40;;;;;;;;;;5037302;28;20228;-57
2023/01/17 08:47:01;;;;;;;10.63;2.70;;;;;;;;;;5029849;28;20325;-56
2023/01/17 08:49:27;;;;;;;1.57;1.40;;;;;;;;;;5046412;28;20260;-56
2023/01/17 08:51:54;;;;;;;7.07;2.53;;;;;;;;;;5046726;28;20292;-56
2023/01/17 08:54:21;;;;;;;2.47;1.67;;;;;;;;;;5051026;28;20247;-57
2023/01/17 08:56:48;;;;;;;1.50;1.40;;;;;;;;;;5061516;28;20272;-56
2023/01/17 08:59:15;;;;;;;0.83;0.70;;;;;;;;;;5064631;28;20751;-55
2023/01/17 09:01:44;;;;;;;1.57;1.10;;;;;;;;;;5061648;28;20235;-55
2023/01/17 09:04:11;;;;;;;1.33;1.07;;;;;;;;;;5058770;28;20228;-55
2023/01/17 09:06:38;;;;;;;1.27;1.17;;;;;;;;;;5068650;28;20616;-54
2023/01/17 09:09:06;;;;;;;1.23;1.13;;;;;;;;;;5047608;28;20303;-55
2023/01/17 09:11:32;;;;;;;1.30;1.20;;;;;;;;;;5044934;28;20242;-54
2023/01/17 09:14:00;;;;;;;1.23;1.23;;;;;;;;;;5058537;28;20288;-57
2023/01/17 09:16:27;;;;;;;1.30;1.07;;;;;;;;;;5049893;28;20239;-54
2023/01/17 09:18:56;;;;;;;2.23;1.10;;;;;;;;;;5046496;28;20263;-55
2023/01/17 09:21:22;;;;;;;1.63;1.20;;;;;;;;;;5043039;28;20287;-58
2023/01/17 09:23:49;;;;;;;0.67;0.67;;;;;;;;;;5043589;28;20243;-55
2023/01/17 09:26:17;;;;;;;1.13;1.00;;;;;;;;;;5042954;28;20247;-54
2023/01/17 09:28:44;;;;;;;1.17;0.80;;;;;;;;;;5049473;28;20229;-55
2023/01/17 09:31:10;;;;;;;1.13;0.70;;;;;;;;;;5057702;28;20236;-54
2023/01/17 09:33:46;;;;;;;1.53;1.30;;;;;;;;;;5050127;28;20255;-57
2023/01/17 09:36:14;;;;;;;1.00;0.80;;;;;;;;;;5052938;28;20237;-54
2023/01/17 09:38:40;;;;;;;3.77;1.30;;;;;;;;;;5052008;28;20233;-55
2023/01/17 09:41:21;;;;;;;1.10;0.93;;;;;;;;;;5054161;28;20314;-55
2023/01/17 09:43:49;;;;;;;0.87;0.77;;;;;;;;;;5046934;28;20228;-56
2023/01/17 09:46:21;;;;;;;0.80;0.80;;;;;;;;;;5046003;28;20243;-55
2023/01/17 09:48:49;;;;;;;0.73;0.73;;;;;;;;;;5047680;28;20287;-56
2023/01/17 09:51:19;;;;;;;1.93;0.87;;;;;;;;;;5060292;28;20238;-54
2023/01/17 09:53:46;;;;;;;1.13;0.80;;;;;;;;;;5072264;28;20293;-56
2023/01/17 09:56:15;;;;;;;0.53;0.53;;;;;;;;;;5067358;28;20243;-55
2023/01/17 09:58:46;;;;;;;1.03;0.70;;;;;;;;;;5055843;28;20508;-54
2023/01/17 10:01:18;;;;;;;2.33;0.90;;;;;;;;;;5041456;28;20659;-55
2023/01/17 10:03:52;;;;;;;0.50;0.50;;;;;;;;;;5068502;28;20759;-54
2023/01/17 10:06:35;;;;;;;0.70;0.60;;;;;;;;;;5047599;28;20255;-55
2023/01/17 10:09:09;;;;;;;0.60;0.60;;;;;;;;;;5060689;28;20244;-55
2023/01/17 10:11:40;;;;;;;4.73;1.10;;;;;;;;;;5049710;28;20256;-55
2023/01/17 10:14:17;;;;;;;2.00;0.60;;;;;;;;;;5054445;28;20296;-55
2023/01/17 10:16:47;;;;;;;0.73;0.70;;;;;;;;;;5051926;28;20918;-55
2023/01/17 10:19:22;;;;;;;1.37;1.10;;;;;;;;;;5059529;28;20256;-55
2023/01/17 10:22:00;;;;;;;0.67;0.67;;;;;;;;;;5051122;28;20258;-58
2023/01/17 10:24:47;;;;;;;1.37;1.00;;;;;;;;;;5049359;28;20278;-58
2023/01/17 10:27:19;;;;;;;0.70;0.70;;;;;;;;;;5036833;28;20231;-55
2023/01/17 10:29:47;;;;;;;1.30;0.60;;;;;;;;;;5045027;28;20231;-55
2023/01/17 10:32:14;;;;;;;0.60;0.60;;;;;;;;;;5039834;28;20235;-56
2023/01/17 10:34:44;;;;;;;1.00;0.80;;;;;;;;;;5054929;28;20254;-55
2023/01/17 10:37:16;;;;;;;1.03;0.60;;;;;;;;;;5044879;28;20286;-56
2023/01/17 10:39:44;;;;;;;0.53;0.53;;;;;;;;;;5043769;28;20282;-56
2023/01/17 10:42:15;;;;;;;0.83;0.73;;;;;;;;;;5050866;28;20372;-55
2023/01/17 10:44:46;;;;;;;0.77;0.77;;;;;;;;;;5066895;28;20850;-56
2023/01/17 10:47:15;;;;;;;0.90;0.70;;;;;;;;;;5061591;28;20240;-55
2023/01/17 10:49:43;;;;;;;0.57;0.50;;;;;;;;;;5055378;28;20293;-55
2023/01/17 10:52:15;;;;;;;1.40;0.40;;;;;;;;;;5048527;28;20236;-55
2023/01/17 10:54:51;;;;;;;0.67;0.67;;;;;;;;;;5053054;28;23126;-56
2023/01/17 10:57:20;;;;;;;0.63;0.63;;;;;;;;;;5064156;28;20256;-56
2023/01/17 10:59:46;;;;;;;0.50;0.50;;;;;;;;;;5052719;28;20231;-55
2023/01/17 11:02:18;;;;;;;1.00;0.70;;;;;;;;;;5053353;28;20245;-54
2023/01/17 11:04:47;;;;;;;0.67;0.67;;;;;;;;;;5052694;28;20234;-55
2023/01/17 11:07:16;;;;;;;1.43;0.57;;;;;;;;;;5062421;28;20241;-56
2023/01/17 11:09:43;;;;;;;1.40;0.50;;;;;;;;;;5060256;28;20908;-56
2023/01/17 11:12:31;;;;;;;1.40;0.90;;;;;;;;;;5061068;28;20263;-55
2023/01/17 11:15:01;;;;;;;0.60;0.60;;;;;;;;;;5043128;28;20243;-55
2023/01/17 11:17:28;;;;;;;0.87;0.70;;;;;;;;;;5048063;28;20801;-57
2023/01/17 11:20:05;;;;;;;2.83;0.90;;;;;;;;;;5066384;28;20230;-55
2023/01/17 11:22:33;;;;;;;0.73;0.50;;;;;;;;;;5051679;28;20231;-59
2023/01/17 11:25:01;;;;;;;0.67;0.50;;;;;;;;;;5041623;28;20661;-56
2023/01/17 11:27:28;;;;;;;2.03;0.60;;;;;;;;;;5055317;28;20267;-57
2023/01/17 11:30:02;;;;;;;0.97;0.57;;;;;;;;;;5053148;28;20893;-61
2023/01/17 11:32:30;;;;;;;0.43;0.43;;;;;;;;;;5059622;28;20270;-57
2023/01/17 11:35:08;;;;;;;0.50;0.50;;;;;;;;;;5052802;28;20247;-58
2023/01/17 11:37:36;;;;;;;0.80;0.70;;;;;;;;;;5052178;28;20284;-60
2023/01/17 11:40:18;;;;;;;0.70;0.70;;;;;;;;;;5042495;28;20612;-59
2023/01/17 11:42:45;;;;;;;0.80;0.80;;;;;;;;;;5039662;28;20242;-55
2023/01/17 11:45:25;;;;;;;1.27;0.80;;;;;;;;;;5032164;28;20231;-54
2023/01/17 11:48:04;;;;;;;1.10;1.00;;;;;;;;;;5048529;28;20230;-54
2023/01/17 11:50:30;;;;;;;1.47;1.37;;;;;;;;;;5046748;28;20226;-54
2023/01/17 11:53:06;;;;;;;1.40;1.30;;;;;;;;;;5043118;28;20638;-53
2023/01/17 11:55:32;;;;;;;2.10;1.73;;;;;;;;;;5043320;28;20777;-54
2023/01/17 11:57:59;;;;;;;1.87;1.77;;;;;;;;;;5041458;28;20279;-55
2023/01/17 12:00:30;;;;;;;1.50;1.40;;;;;;;;;;5058805;28;20784;-54
2023/01/17 12:03:20;;;;;;;4.40;1.60;;;;;;;;;;5062941;28;20252;-56
2023/01/17 12:05:57;;;;;;;1.67;1.53;;;;;;;;;;5037647;28;21193;-56
2023/01/17 12:08:34;;;;;;;2.17;1.97;;;;;;;;;;5048966;28;20227;-57
2023/01/17 12:11:08;;;;;;;2.10;1.77;;;;;;;;;;5045579;28;20246;-57
2023/01/17 12:16:32;;;;;;;2.17;1.53;;;;;;;;;;5051903;28;20247;-56
2023/01/17 12:19:05;;;;;;;2.77;1.47;;;;;;;;;;5049394;28;20245;-57
2023/01/17 12:21:37;;;;;;;3.13;2.90;;;;;;;;;;5049298;28;20728;-58
2023/01/17 12:24:14;;;;;;;2.00;1.27;;;;;;;;;;5043124;28;20242;-58
2023/01/17 12:26:42;;;;;;;1.43;1.33;;;;;;;;;;5039827;28;20872;-59
2023/01/17 12:29:24;;;;;;;1.50;1.20;;;;;;;;;;5043669;28;20230;-58
2023/01/17 12:31:57;;;;;;;1.47;1.37;;;;;;;;;;5043983;28;20227;-59
2023/01/17 12:34:25;;;;;;;2.50;1.60;;;;;;;;;;5051346;28;20242;-60
2023/01/17 12:36:53;;;;;;;2.10;1.50;;;;;;;;;;5041700;28;20234;-60
2023/01/17 12:39:24;;;;;;;2.50;1.50;;;;;;;;;;5039488;28;20238;-59
2023/01/17 12:41:56;;;;;;;1.60;1.47;;;;;;;;;;5053415;28;20315;-59
2023/01/17 12:44:28;;;;;;;1.20;1.10;;;;;;;;;;5047662;28;20320;-58
2023/01/17 12:46:58;;;;;;;1.30;1.20;;;;;;;;;;5051218;28;20246;-63
2023/01/17 12:49:31;;;;;;;2.60;1.40;;;;;;;;;;5052644;28;20239;-62
2023/01/17 12:52:02;;;;;;;2.17;0.97;;;;;;;;;;5051160;28;20262;-60
2023/01/17 12:54:33;;;;;;;3.87;1.03;;;;;;;;;;5055512;28;20229;-57
2023/01/17 12:57:02;;;;;;;1.70;0.97;;;;;;;;;;5050343;28;20321;-58
2023/01/17 12:59:32;;;;;;;1.43;0.93;;;;;;;;;;5056191;28;20284;-57
2023/01/17 13:01:59;;;;;;;3.97;1.20;;;;;;;;;;5043823;28;20239;-57
2023/01/17 13:04:28;;;;;;;3.33;1.00;;;;;;;;;;5041739;28;20794;-56
2023/01/17 13:07:00;;;;;;;4.27;2.60;;;;;;;;;;5054762;28;20321;-59
2023/01/17 13:09:29;;;;;;;2.47;0.97;;;;;;;;;;5055375;28;20228;-58
2023/01/17 13:11:59;;;;;;;1.27;1.10;;;;;;;;;;5044142;28;20459;-58
2023/01/17 13:14:26;;;;;;;4.33;1.47;;;;;;;;;;5053269;28;20799;-57
2023/01/17 13:16:56;;;;;;;2.13;1.10;;;;;;;;;;5049651;28;20268;-57
2023/01/17 13:19:28;;;;;;;3.30;1.60;;;;;;;;;;5055534;28;20307;-56
2023/01/17 13:21:56;;;;;;;1.20;1.10;;;;;;;;;;5056436;28;20226;-56
2023/01/17 13:24:26;;;;;;;2.77;1.27;;;;;;;;;;5042115;28;20234;-56
2023/01/17 13:27:02;;;;;;;2.40;1.57;;;;;;;;;;5049068;28;20253;-57
2023/01/17 13:29:32;;;;;;;6.67;1.87;;;;;;;;;;5051310;28;20223;-56
2023/01/17 13:32:04;;;;;;;2.57;0.93;;;;;;;;;;5047442;28;20231;-56
2023/01/17 13:34:48;;;;;;;2.10;0.80;;;;;;;;;;5044737;28;20235;-56
2023/01/17 13:37:29;;;;;;;2.67;1.63;;;;;;;;;;5039081;28;20915;-57
2023/01/17 13:40:10;;;;;;;1.53;0.97;;;;;;;;;;5045662;28;20776;-63
2023/01/17 13:42:44;;;;;;;3.70;0.90;;;;;;;;;;5044656;28;20241;-56
2023/01/17 13:45:17;;;;;;;4.87;0.97;;;;;;;;;;5042905;28;20229;-55
2023/01/17 13:47:44;;;;;;;1.10;0.97;;;;;;;;;;5058108;28;20242;-57
2023/01/17 13:50:29;;;;;;;2.20;1.13;;;;;;;;;;5052548;28;20326;-56
2023/01/17 13:52:56;;;;;;;2.73;0.90;;;;;;;;;;5056971;28;20242;-57
2023/01/17 13:55:44;;;;;;;0.90;0.90;;;;;;;;;;5053695;28;20227;-57
2023/01/17 13:58:26;;;;;;;8.37;1.40;;;;;;;;;;5052681;28;20305;-55
2023/01/17 14:00:54;;;;;;;3.63;1.10;;;;;;;;;;5049624;28;20293;-55
2023/01/17 14:03:35;;;;;;;3.53;1.30;;;;;;;;;;5055015;28;20242;-55
2023/01/17 14:06:02;;;;;;;1.63;1.17;;;;;;;;;;5043328;28;20663;-55
2023/01/17 14:08:30;;;;;;;3.17;0.93;;;;;;;;;;5057467;28;20239;-55
2023/01/17 14:11:04;;;;;;;2.43;1.30;;;;;;;;;;5061811;28;20297;-56
2023/01/17 14:13:33;;;;;;;2.77;1.17;;;;;;;;;;5060711;28;20248;-55
2023/01/17 14:16:01;;;;;;;3.50;1.20;;;;;;;;;;5049218;28;20242;-55
2023/01/17 14:18:31;;;;;;;3.00;1.20;;;;;;;;;;5047012;28;20230;-57
2023/01/17 14:21:06;;;;;;;4.93;1.13;;;;;;;;;;5053278;28;20227;-56
2023/01/17 14:23:40;;;;;;;2.70;1.17;;;;;;;;;;5057499;28;20231;-55
2023/01/17 14:26:35;;;;;;;2.43;1.10;;;;;;;;;;5047374;28;20246;-56
2023/01/17 14:29:16;;;;;;;2.23;1.30;;;;;;;;;;5053400;28;20288;-56
2023/01/17 14:31:44;;;;;;;3.50;1.17;;;;;;;;;;5050737;28;20227;-55
2023/01/17 14:34:13;;;;;;;2.40;1.30;;;;;;;;;;5054517;28;20227;-55
2023/01/17 14:36:40;;;;;;;2.07;1.27;;;;;;;;;;5069373;28;20313;-57
2023/01/17 14:39:20;;;;;;;4.57;1.30;;;;;;;;;;5063404;28;22005;-55
2023/01/17 14:41:46;;;;;;;5.87;3.43;;;;;;;;;;5047915;28;20689;-55
2023/01/17 14:44:12;;;;;;;4.80;1.50;;;;;;;;;;5054662;28;20298;-54
2023/01/17 14:46:39;;;;;;;1.43;0.70;;;;;;;;;;5043052;28;20326;-56
2023/01/17 14:49:25;;;;;;;3.87;1.30;;;;;;;;;;5063950;28;20724;-54
2023/01/17 14:52:02;;;;;;;1.40;1.10;;;;;;;;;;5041420;28;20972;-55
2023/01/17 14:54:29;;;;;;;4.17;1.40;;;;;;;;;;5042050;28;20326;-55
2023/01/17 14:57:10;;;;;;;2.77;1.30;;;;;;;;;;5052465;28;20652;-55
2023/01/17 14:59:36;;;;;;;1.37;0.90;;;;;;;;;;5051200;28;20235;-59
2023/01/17 15:02:04;;;;;;;1.50;1.20;;;;;;;;;;5056282;28;20243;-55
2023/01/17 15:04:37;;;;;;;3.90;1.40;;;;;;;;;;5038402;28;20235;-56
2023/01/17 15:07:04;;;;;;;1.53;0.97;;;;;;;;;;5041115;28;20834;-56
2023/01/17 15:09:32;;;;;;;2.13;1.03;;;;;;;;;;5034246;28;20293;-56
2023/01/17 15:11:59;;;;;;;1.87;1.03;;;;;;;;;;5030460;28;20239;-55
2023/01/17 15:14:28;;;;;;;6.77;1.60;;;;;;;;;;5040130;28;20607;-57
2023/01/17 15:16:54;;;;;;;4.20;1.87;;;;;;;;;;5054802;28;20335;-55
2023/01/17 15:19:22;;;;;;;5.57;2.00;;;;;;;;;;5053277;28;20250;-55
2023/01/17 15:21:51;;;;;;;2.67;0.87;;;;;;;;;;5048635;28;20240;-54
2023/01/17 15:24:19;;;;;;;3.17;1.37;;;;;;;;;;5038387;28;20280;-54
2023/01/17 15:26:45;;;;;;;4.73;1.20;;;;;;;;;;5043333;28;20238;-55
2023/01/17 15:29:14;;;;;;;3.57;1.00;;;;;;;;;;5052447;28;20227;-55
2023/01/17 15:31:42;;;;;;;1.90;1.27;;;;;;;;;;5053262;28;20235;-58
2023/01/17 15:34:13;;;;;;;0.80;0.80;;;;;;;;;;5055389;28;20241;-54
2023/01/17 15:36:40;;;;;;;2.17;1.57;;;;;;;;;;5050699;28;20702;-54
2023/01/17 15:39:16;;;;;;;3.27;1.30;;;;;;;;;;5058276;28;20302;-55
2023/01/17 15:41:43;;;;;;;3.77;1.40;;;;;;;;;;5069933;28;20840;-55
2023/01/17 15:44:21;;;;;;;5.30;1.13;;;;;;;;;;5060922;28;20237;-55
2023/01/17 15:46:48;;;;;;;2.80;1.40;;;;;;;;;;5062743;28;20329;-55
2023/01/17 15:49:16;;;;;;;2.73;1.20;;;;;;;;;;5061894;28;20340;-55
2023/01/17 15:51:47;;;;;;;3.97;1.37;;;;;;;;;;5062664;28;20223;-55
2023/01/17 15:54:25;;;;;;;1.97;1.30;;;;;;;;;;5054885;28;21478;-55
2023/01/17 15:57:05;;;;;;;2.23;1.53;;;;;;;;;;5056440;28;20280;-55
2023/01/17 15:59:40;;;;;;;4.83;1.40;;;;;;;;;;5059468;28;20309;-59
2023/01/17 16:02:22;;;;;;;4.80;1.43;;;;;;;;;;5060852;28;20236;-55
2023/01/17 16:04:48;;;;;;;2.70;1.43;;;;;;;;;;5062881;28;20913;-55
2023/01/17 16:07:19;;;;;;;3.67;1.70;;;;;;;;;;5056165;28;20704;-56
2023/01/17 16:09:47;;;;;;;4.67;1.87;;;;;;;;;;5054174;28;20229;-55
2023/01/17 16:12:14;;;;;;;1.80;1.70;;;;;;;;;;5055859;28;20231;-55
2023/01/17 16:14:40;;;;;;;4.43;1.50;;;;;;;;;;5044816;28;20925;-55
2023/01/17 16:17:14;;;;;;;3.73;1.77;;;;;;;;;;5055531;28;20245;-55